Time;durP1;ratioP1;P1;durP2;ratioP2;P2;SDS_P1;SDS_P2;PMS_P1;PMS_P2;Temp;Humidity;BMP_temperature;BMP_pressure;BME280_temperature;BME280_humidity;BME280_pressure;Samples;Min_cycle;Max_cycle;Signal;HPM_P1;HPM_P2
2022/09/07 04:02:01;;;;;;;4.30;3.40;;;20.30;99.90;;;;;;5255185;23;20501;-60
2022/09/07 04:04:29;;;;;;;4.37;2.83;;;20.30;99.90;;;;;;4974705;28;20541;-62
2022/09/07 04:06:55;;;;;;;8.00;3.43;;;20.30;99.90;;;;;;4975015;28;20454;-60
2022/09/07 04:09:22;;;;;;;6.43;4.00;;;20.20;99.90;;;;;;4975135;28;20457;-61
2022/09/07 04:11:49;;;;;;;4.17;3.70;;;20.10;99.90;;;;;;4974551;28;20482;-61
2022/09/07 04:14:16;;;;;;;5.30;4.60;;;20.10;99.90;;;;;;4974721;28;20450;-60
2022/09/07 04:16:44;;;;;;;4.17;3.77;;;20.00;99.90;;;;;;4974617;28;20463;-60
2022/09/07 04:19:12;;;;;;;7.00;4.10;;;20.00;99.90;;;;;;4974568;28;20525;-61
2022/09/07 04:21:39;;;;;;;8.97;4.80;;;19.90;99.90;;;;;;4974335;28;20477;-61
2022/09/07 04:24:06;;;;;;;7.03;4.33;;;19.90;99.90;;;;;;4974713;28;20466;-61
2022/09/07 04:26:34;;;;;;;4.37;3.97;;;19.90;99.90;;;;;;4975040;28;20462;-61
2022/09/07 04:29:01;;;;;;;5.07;3.80;;;19.80;99.90;;;;;;4975296;28;20459;-61
2022/09/07 04:31:28;;;;;;;4.70;3.70;;;19.80;99.90;;;;;;4975499;28;20483;-61
2022/09/07 04:33:56;;;;;;;5.80;4.30;;;19.80;99.90;;;;;;4975210;28;20458;-62
2022/09/07 04:36:24;;;;;;;4.23;3.73;;;19.80;99.90;;;;;;4975268;28;20458;-62
2022/09/07 04:38:54;;;;;;;4.40;3.50;;;19.80;99.90;;;;;;4978587;28;20859;-61
2022/09/07 04:41:21;;;;;;;5.03;3.53;;;19.80;99.90;;;;;;4978751;28;20840;-62
2022/09/07 04:43:52;;;;;;;4.70;4.20;;;19.80;99.90;;;;;;4978276;28;20945;-62
2022/09/07 04:46:21;;;;;;;7.20;4.10;;;19.70;99.90;;;;;;4978350;28;20446;-62
2022/09/07 04:48:48;;;;;;;8.47;3.77;;;19.70;99.90;;;;;;4977780;28;20941;-62
2022/09/07 04:51:19;;;;;;;6.43;3.87;;;19.70;99.90;;;;;;4977862;28;20489;-62
2022/09/07 04:53:49;;;;;;;4.70;3.73;;;19.70;99.90;;;;;;4978056;28;20446;-62
2022/09/07 04:56:16;;;;;;;4.50;4.10;;;19.70;99.90;;;;;;4977852;28;20506;-62
2022/09/07 04:58:43;;;;;;;4.40;4.00;;;19.70;99.90;;;;;;4977687;28;20461;-62
2022/09/07 05:01:10;;;;;;;3.97;3.60;;;19.70;99.90;;;;;;4977478;28;20482;-62
2022/09/07 05:03:38;;;;;;;5.27;4.20;;;19.70;99.90;;;;;;4978309;28;20466;-62
2022/09/07 05:06:06;;;;;;;5.53;4.27;;;19.70;99.90;;;;;;4977882;28;20458;-62
2022/09/07 05:08:36;;;;;;;4.20;3.90;;;19.80;99.90;;;;;;4977536;28;20459;-62
2022/09/07 05:11:05;;;;;;;5.07;3.80;;;19.80;99.90;;;;;;4977455;28;20902;-62
2022/09/07 05:13:32;;;;;;;4.80;4.10;;;19.90;99.90;;;;;;4977029;28;20942;-62
2022/09/07 05:16:00;;;;;;;4.33;3.90;;;20.00;99.90;;;;;;4977482;28;20455;-62
2022/09/07 05:18:27;;;;;;;4.20;3.80;;;20.10;99.90;;;;;;4977403;28;20459;-62
2022/09/07 05:20:54;;;;;;;6.90;4.23;;;20.10;99.90;;;;;;4977270;28;20474;-62
2022/09/07 05:23:23;;;;;;;5.50;4.33;;;20.20;99.90;;;;;;4977281;28;20462;-62
2022/09/07 05:25:49;;;;;;;9.00;3.70;;;20.30;99.90;;;;;;4977154;28;20458;-62
2022/09/07 05:28:18;;;;;;;9.53;4.63;;;20.30;99.90;;;;;;4977137;28;20789;-62
2022/09/07 05:30:44;;;;;;;5.73;4.33;;;20.30;99.90;;;;;;4977175;28;20478;-62
2022/09/07 05:33:11;;;;;;;8.40;4.53;;;20.30;99.90;;;;;;4976912;28;20478;-62
2022/09/07 05:35:38;;;;;;;6.30;5.10;;;20.40;99.90;;;;;;4976645;28;20459;-62
2022/09/07 05:38:05;;;;;;;8.30;5.20;;;20.50;99.90;;;;;;4977011;28;20461;-62
2022/09/07 05:40:32;;;;;;;5.33;4.47;;;20.50;99.90;;;;;;4976893;28;20485;-62
2022/09/07 05:42:59;;;;;;;5.83;5.13;;;20.60;99.90;;;;;;4976877;28;20486;-62
2022/09/07 05:45:27;;;;;;;5.77;4.73;;;20.60;99.90;;;;;;4976359;28;20967;-62
2022/09/07 05:47:55;;;;;;;7.80;5.17;;;20.70;99.90;;;;;;4976592;28;20509;-62
2022/09/07 05:50:22;;;;;;;5.00;4.40;;;20.90;99.90;;;;;;4976045;28;20462;-62
2022/09/07 05:52:49;;;;;;;5.17;4.63;;;21.10;99.90;;;;;;4976290;28;20530;-62
2022/09/07 05:55:15;;;;;;;6.93;4.80;;;21.40;99.90;;;;;;4976555;28;20455;-62
2022/09/07 05:57:42;;;;;;;7.53;4.50;;;21.80;99.90;;;;;;4976774;28;20454;-62
2022/09/07 06:00:10;;;;;;;5.33;4.70;;;22.20;99.90;;;;;;4976790;28;20455;-62
2022/09/07 06:02:39;;;;;;;5.00;4.33;;;22.60;99.90;;;;;;4976185;28;20462;-62
2022/09/07 06:05:06;;;;;;;6.60;4.60;;;23.10;99.90;;;;;;4976115;28;20458;-62
2022/09/07 06:07:33;;;;;;;4.80;3.83;;;23.60;99.90;;;;;;4976391;28;20455;-62
2022/09/07 06:10:00;;;;;;;6.50;4.10;;;24.10;99.90;;;;;;4976570;28;20462;-63
2022/09/07 06:12:27;;;;;;;12.07;4.57;;;24.20;99.90;;;;;;4976254;28;20482;-63
2022/09/07 06:14:53;;;;;;;4.33;3.93;;;24.50;99.90;;;;;;4976325;28;20496;-62
2022/09/07 06:17:20;;;;;;;6.50;4.43;;;24.80;99.90;;;;;;4976024;28;20818;-63
2022/09/07 06:19:48;;;;;;;6.93;3.70;;;25.30;99.90;;;;;;4976085;28;20454;-63
2022/09/07 06:22:15;;;;;;;4.70;3.60;;;25.50;99.90;;;;;;4976009;28;20478;-63
2022/09/07 06:24:42;;;;;;;6.93;4.60;;;25.90;99.90;;;;;;4976066;28;20458;-62
2022/09/07 06:27:08;;;;;;;5.53;3.67;;;26.40;99.90;;;;;;4975692;28;20458;-62
2022/09/07 06:29:35;;;;;;;5.53;3.83;;;26.80;99.90;;;;;;4976248;28;20461;-62
2022/09/07 06:32:03;;;;;;;8.37;3.70;;;27.10;99.90;;;;;;4975533;28;20485;-62
2022/09/07 06:34:30;;;;;;;6.70;3.60;;;27.40;99.90;;;;;;4975969;28;20465;-62
2022/09/07 06:36:58;;;;;;;6.07;3.60;;;27.70;99.90;;;;;;4975959;28;20458;-62
2022/09/07 06:39:24;;;;;;;4.17;3.43;;;28.10;99.90;;;;;;4976123;28;20463;-62
2022/09/07 06:41:51;;;;;;;6.80;3.87;;;28.40;99.90;;;;;;4975437;28;21008;-62
2022/09/07 06:44:18;;;;;;;4.63;3.27;;;28.70;99.90;;;;;;4975833;28;20481;-62
2022/09/07 06:46:45;;;;;;;4.03;3.27;;;28.70;99.90;;;;;;4976370;28;20462;-62
2022/09/07 06:49:11;;;;;;;5.27;3.87;;;28.70;99.90;;;;;;4975632;28;20458;-62
2022/09/07 06:51:38;;;;;;;4.97;3.67;;;28.60;99.90;;;;;;4975391;28;20483;-62
2022/09/07 06:54:06;;;;;;;6.53;3.50;;;28.40;99.90;;;;;;4975450;28;20466;-62
2022/09/07 06:56:33;;;;;;;11.10;4.60;;;28.00;99.90;;;;;;4975229;28;20945;-62
2022/09/07 06:59:00;;;;;;;7.70;4.17;;;27.70;99.90;;;;;;4975549;28;20455;-62
2022/09/07 07:01:27;;;;;;;9.33;4.40;;;27.40;99.90;;;;;;4975328;28;20490;-62
2022/09/07 07:03:54;;;;;;;5.17;4.17;;;27.30;99.90;;;;;;4975184;28;20498;-62
2022/09/07 07:06:22;;;;;;;5.00;4.30;;;27.10;99.90;;;;;;4975322;28;20454;-62
2022/09/07 07:08:53;;;;;;;4.40;4.00;;;26.80;99.90;;;;;;4975246;28;20455;-61
2022/09/07 07:11:21;;;;;;;4.73;3.93;;;26.60;99.90;;;;;;4975156;28;20479;-61
2022/09/07 07:13:48;;;;;;;4.60;4.07;;;26.30;99.90;;;;;;4975240;28;20450;-61
2022/09/07 07:16:16;;;;;;;7.57;3.90;;;26.00;99.90;;;;;;4974934;28;20938;-62
2022/09/07 07:18:43;;;;;;;14.83;4.60;;;26.00;99.90;;;;;;4975170;28;20460;-62
2022/09/07 07:21:12;;;;;;;6.50;4.07;;;25.80;99.90;;;;;;4975191;28;20905;-63
2022/09/07 07:23:40;;;;;;;3.97;3.53;;;26.20;99.90;;;;;;4975131;28;20450;-62
2022/09/07 07:26:10;;;;;;;6.83;3.53;;;26.60;99.90;;;;;;4975260;28;20450;-63
2022/09/07 07:28:38;;;;;;;5.57;3.60;;;27.20;99.90;;;;;;4975893;28;20439;-62
2022/09/07 07:31:06;;;;;;;5.13;3.13;;;27.90;99.90;;;;;;4974948;28;21008;-62
2022/09/07 07:33:35;;;;;;;6.10;3.77;;;28.80;99.90;;;;;;4975053;28;20489;-62
2022/09/07 07:36:11;;;;;;;3.80;3.43;;;29.70;99.90;;;;;;4975228;28;20458;-63
2022/09/07 07:38:38;;;;;;;6.33;3.40;;;30.30;99.90;;;;;;4974915;28;20443;-62
2022/09/07 07:41:05;;;;;;;3.63;3.33;;;31.00;98.50;;;;;;4974771;28;20477;-62
2022/09/07 07:43:32;;;;;;;7.07;3.53;;;31.50;96.40;;;;;;4975493;28;20461;-62
2022/09/07 07:46:00;;;;;;;5.90;3.10;;;31.80;95.10;;;;;;4975036;28;20458;-62
2022/09/07 07:48:27;;;;;;;4.20;3.80;;;31.70;93.70;;;;;;4974893;28;20470;-62
2022/09/07 07:50:59;;;;;;;4.27;3.20;;;31.60;93.90;;;;;;4974796;28;20485;-62
2022/09/07 07:53:25;;;;;;;6.03;4.07;;;32.00;92.80;;;;;;4974398;28;20474;-62
2022/09/07 07:55:52;;;;;;;4.20;3.27;;;32.20;92.00;;;;;;4974856;28;20462;-62
2022/09/07 07:58:19;;;;;;;8.07;3.43;;;32.70;91.70;;;;;;4975006;28;20460;-62
2022/09/07 08:00:46;;;;;;;6.00;3.20;;;33.40;90.20;;;;;;4974668;28;20496;-62
2022/09/07 08:03:14;;;;;;;4.90;3.50;;;33.60;86.60;;;;;;4974471;28;20905;-62
2022/09/07 08:05:41;;;;;;;5.80;3.00;;;34.00;84.80;;;;;;4974801;28;20461;-62
2022/09/07 08:08:10;;;;;;;4.17;3.20;;;34.10;82.30;;;;;;4974668;28;20465;-62
2022/09/07 08:10:36;;;;;;;5.33;3.27;;;34.10;81.50;;;;;;4974752;28;20576;-62
2022/09/07 08:13:03;;;;;;;6.63;3.17;;;34.00;81.30;;;;;;4977213;28;20487;-62
2022/09/07 08:15:30;;;;;;;3.23;2.53;;;34.20;80.30;;;;;;4978471;28;20462;-62
2022/09/07 08:17:57;;;;;;;5.17;3.47;;;34.40;79.80;;;;;;4978162;28;20458;-62
2022/09/07 08:20:25;;;;;;;4.37;2.60;;;34.00;77.70;;;;;;4978269;28;20454;-62
2022/09/07 08:22:52;;;;;;;4.53;2.87;;;33.90;79.10;;;;;;4979231;28;20453;-62
2022/09/07 08:25:19;;;;;;;5.40;2.90;;;34.30;77.80;;;;;;4978036;28;20980;-63
2022/09/07 08:27:46;;;;;;;6.17;3.07;;;34.60;77.60;;;;;;4978364;28;20879;-62
2022/09/07 08:30:13;;;;;;;4.93;2.70;;;34.40;77.60;;;;;;4978285;28;20454;-62
2022/09/07 08:32:40;;;;;;;5.20;2.70;;;35.10;74.20;;;;;;4978155;28;20513;-63
2022/09/07 08:35:07;;;;;;;6.20;2.57;;;35.50;73.00;;;;;;4977816;28;20866;-63
2022/09/07 08:37:35;;;;;;;8.20;2.33;;;35.80;71.30;;;;;;4978140;28;20782;-63
2022/09/07 08:40:03;;;;;;;3.67;2.10;;;35.60;72.80;;;;;;4977709;28;20512;-63
2022/09/07 08:42:43;;;;;;;9.50;2.77;;;36.10;73.10;;;;;;4977609;28;21040;-63
2022/09/07 08:45:14;;;;;;;6.30;2.50;;;36.60;69.50;;;;;;4978098;28;20474;-63
2022/09/07 08:47:45;;;;;;;2.47;2.27;;;36.80;65.60;;;;;;4977964;28;20517;-63
2022/09/07 08:50:20;;;;;;;3.93;2.37;;;37.20;67.20;;;;;;4978025;28;20446;-63
2022/09/07 08:52:51;;;;;;;4.27;3.00;;;36.90;64.30;;;;;;4977882;28;20473;-63
2022/09/07 08:55:26;;;;;;;4.63;2.40;;;36.20;64.30;;;;;;4977798;28;20446;-63
2022/09/07 08:58:00;;;;;;;7.37;3.47;;;35.40;65.80;;;;;;4977971;28;20525;-63
2022/09/07 09:00:26;;;;;;;4.77;2.97;;;35.20;66.80;;;;;;4977492;28;20784;-63
2022/09/07 09:02:53;;;;;;;5.27;2.97;;;35.10;69.00;;;;;;4977731;28;20497;-63
2022/09/07 09:05:31;;;;;;;5.10;2.53;;;35.00;68.40;;;;;;4977811;28;20454;-62
2022/09/07 09:08:17;;;;;;;6.40;2.43;;;35.10;67.20;;;;;;4977195;28;20902;-63
2022/09/07 09:10:51;;;;;;;3.97;2.40;;;35.00;67.00;;;;;;4977474;28;20473;-63
2022/09/07 09:13:22;;;;;;;4.60;2.33;;;35.50;68.60;;;;;;4977448;28;20544;-63
2022/09/07 09:15:58;;;;;;;3.30;2.60;;;35.70;68.00;;;;;;4977483;28;20446;-63
2022/09/07 09:18:36;;;;;;;5.43;3.07;;;35.60;67.30;;;;;;4977376;28;20438;-63
2022/09/07 09:21:06;;;;;;;4.37;3.17;;;35.60;67.20;;;;;;4977245;28;20482;-63
2022/09/07 09:23:40;;;;;;;6.83;2.63;;;36.30;67.60;;;;;;4976036;28;20493;-63
2022/09/07 09:26:12;;;;;;;3.83;2.60;;;36.70;65.00;;;;;;4977549;28;20442;-63
2022/09/07 09:28:39;;;;;;;6.50;2.80;;;37.10;62.40;;;;;;4977203;28;20446;-63
2022/09/07 09:31:06;;;;;;;5.80;2.73;;;36.90;62.90;;;;;;4977078;28;20478;-63
2022/09/07 09:33:32;;;;;;;5.37;2.40;;;36.80;64.30;;;;;;4976993;28;20484;-63
2022/09/07 09:36:01;;;;;;;5.43;2.90;;;36.90;62.70;;;;;;4977062;28;20513;-63
2022/09/07 09:38:33;;;;;;;3.43;2.37;;;37.50;65.00;;;;;;4977012;28;20519;-63
2022/09/07 09:41:04;;;;;;;6.40;2.53;;;37.30;59.80;;;;;;4976868;28;20485;-63
2022/09/07 09:43:38;;;;;;;3.10;2.77;;;37.40;61.30;;;;;;4977027;28;20493;-63
2022/09/07 09:46:19;;;;;;;3.60;2.40;;;37.20;60.50;;;;;;4976901;28;20446;-63
2022/09/07 09:48:53;;;;;;;4.17;2.77;;;37.30;62.50;;;;;;4976550;28;20445;-63
2022/09/07 09:51:20;;;;;;;4.53;2.63;;;37.40;59.40;;;;;;4976801;28;20477;-63
2022/09/07 09:53:54;;;;;;;5.90;3.30;;;37.70;59.20;;;;;;4976611;28;20478;-63
2022/09/07 09:56:35;;;;;;;5.60;2.80;;;38.10;58.20;;;;;;4976681;28;20450;-63
2022/09/07 09:59:12;;;;;;;4.87;2.27;;;38.00;59.20;;;;;;4976319;28;20976;-63
2022/09/07 10:01:39;;;;;;;6.93;2.93;;;38.60;58.50;;;;;;4976311;28;21055;-63
2022/09/07 10:04:29;;;;;;;7.87;2.80;;;38.40;57.10;;;;;;4976401;28;20516;-63
2022/09/07 10:06:57;;;;;;;5.80;2.87;;;38.30;58.10;;;;;;4976583;28;20530;-63
2022/09/07 10:09:26;;;;;;;5.23;2.80;;;38.70;55.70;;;;;;4976342;28;20486;-62
2022/09/07 10:11:58;;;;;;;6.00;3.17;;;38.30;57.20;;;;;;4976017;28;20478;-63
2022/09/07 10:14:29;;;;;;;4.93;2.80;;;38.30;56.40;;;;;;4976184;28;20463;-63
2022/09/07 10:16:57;;;;;;;7.20;2.57;;;38.00;58.40;;;;;;4976216;28;20447;-63
2022/09/07 10:19:31;;;;;;;3.03;2.73;;;38.50;59.30;;;;;;4976055;28;20485;-63
2022/09/07 10:21:59;;;;;;;6.70;2.70;;;38.80;56.40;;;;;;4976098;28;20513;-63
2022/09/07 10:24:28;;;;;;;6.50;2.60;;;38.90;56.50;;;;;;4975954;28;20446;-63
2022/09/07 10:26:56;;;;;;;6.27;2.80;;;38.80;56.80;;;;;;4975942;28;20462;-63
2022/09/07 10:29:29;;;;;;;4.97;2.70;;;38.50;56.20;;;;;;4975901;28;20458;-63
2022/09/07 10:32:07;;;;;;;3.23;2.80;;;38.30;56.10;;;;;;4975491;28;20490;-63
2022/09/07 10:34:46;;;;;;;4.30;2.40;;;37.90;56.40;;;;;;4975629;28;20799;-63
2022/09/07 10:37:20;;;;;;;2.67;2.47;;;38.20;56.70;;;;;;4975716;28;20506;-63
2022/09/07 10:39:59;;;;;;;4.37;2.70;;;38.40;55.10;;;;;;4975859;28;20438;-63
2022/09/07 10:42:30;;;;;;;3.97;2.20;;;38.30;56.20;;;;;;4975382;28;21067;-63
2022/09/07 10:45:07;;;;;;;4.20;3.13;;;38.40;57.10;;;;;;4975687;28;20525;-63
2022/09/07 10:47:45;;;;;;;5.03;2.50;;;38.80;56.50;;;;;;4975467;28;20441;-63
2022/09/07 10:50:23;;;;;;;7.07;2.80;;;38.90;54.80;;;;;;4975645;28;20446;-63
2022/09/07 10:52:58;;;;;;;5.93;3.17;;;38.80;55.50;;;;;;4975450;28;20466;-63
2022/09/07 10:55:32;;;;;;;3.33;2.23;;;38.60;55.20;;;;;;4975277;28;20971;-62
2022/09/07 10:58:10;;;;;;;8.27;2.97;;;38.50;54.50;;;;;;4975583;28;20442;-62
2022/09/07 11:00:42;;;;;;;3.90;2.53;;;38.20;55.60;;;;;;4975180;28;20503;-62
2022/09/07 11:03:29;;;;;;;4.17;2.57;;;37.60;55.00;;;;;;4975415;28;20489;-62
2022/09/07 11:06:08;;;;;;;7.27;2.63;;;36.70;55.70;;;;;;4975354;28;20450;-62
2022/09/07 11:08:45;;;;;;;3.27;2.47;;;35.90;58.40;;;;;;4975236;28;20497;-62
2022/09/07 11:11:22;;;;;;;2.90;2.30;;;36.00;59.60;;;;;;4975176;28;20532;-62
2022/09/07 11:13:53;;;;;;;5.17;2.23;;;36.10;57.50;;;;;;4974973;28;20961;-62
2022/09/07 11:16:24;;;;;;;4.27;2.70;;;36.20;57.90;;;;;;4975352;28;20497;-62
2022/09/07 11:18:54;;;;;;;3.80;2.40;;;36.10;58.30;;;;;;4975217;28;20438;-62
2022/09/07 11:21:25;;;;;;;6.27;2.33;;;36.10;61.70;;;;;;4974557;28;20845;-62
2022/09/07 11:23:56;;;;;;;3.30;2.00;;;35.90;58.40;;;;;;4975303;28;20438;-62
2022/09/07 11:26:29;;;;;;;7.33;2.30;;;35.80;58.00;;;;;;4976216;28;20501;-62
2022/09/07 11:29:01;;;;;;;3.03;2.33;;;35.50;58.30;;;;;;4975207;28;20917;-62
2022/09/07 11:31:35;;;;;;;5.20;2.53;;;35.10;58.20;;;;;;4975495;28;20477;-62
2022/09/07 11:34:10;;;;;;;5.80;2.17;;;34.90;58.70;;;;;;4974992;28;20464;-62
2022/09/07 11:36:45;;;;;;;3.93;2.70;;;34.80;58.30;;;;;;4974953;28;20437;-62
2022/09/07 11:39:19;;;;;;;2.97;2.57;;;34.20;60.60;;;;;;4974992;28;20477;-62
2022/09/07 11:41:51;;;;;;;3.67;2.23;;;33.90;60.80;;;;;;4974979;28;20889;-62
2022/09/07 11:44:24;;;;;;;5.53;2.60;;;33.40;61.60;;;;;;4974833;28;20439;-63
2022/09/07 11:46:54;;;;;;;4.50;2.57;;;33.20;62.20;;;;;;4975796;28;20443;-62
2022/09/07 11:49:23;;;;;;;3.87;2.50;;;32.80;63.10;;;;;;4979002;28;20454;-62
2022/09/07 11:51:54;;;;;;;4.57;2.10;;;32.50;63.80;;;;;;4978931;28;20485;-62
2022/09/07 11:54:39;;;;;;;2.50;2.30;;;32.10;65.50;;;;;;4978423;28;20466;-62
2022/09/07 11:57:23;;;;;;;6.47;3.43;;;32.10;64.80;;;;;;4978584;28;20838;-62
2022/09/07 12:00:01;;;;;;;3.70;2.37;;;32.30;68.00;;;;;;4978529;28;20906;-62
2022/09/07 12:03:12;;;;;;;3.33;2.20;;;32.50;65.00;;;;;;4978534;28;20489;-63
2022/09/07 12:05:56;;;;;;;2.97;2.17;;;32.70;67.40;;;;;;4954788;28;20858;-63
2022/09/07 12:08:38;;;;;;;6.37;1.90;;;32.90;65.90;;;;;;4978779;28;20446;-62
2022/09/07 12:11:25;;;;;;;4.33;2.47;;;33.20;63.10;;;;;;4979447;28;20533;-63
2022/09/07 12:14:06;;;;;;;4.80;2.63;;;33.30;62.10;;;;;;4978184;28;20957;-64
2022/09/07 12:16:51;;;;;;;4.90;2.27;;;33.50;62.40;;;;;;4978367;28;20913;-63
2022/09/07 12:19:20;;;;;;;3.33;2.00;;;33.60;61.20;;;;;;4978783;28;20441;-64
2022/09/07 12:21:49;;;;;;;5.20;2.40;;;33.50;61.20;;;;;;4978332;28;20474;-63
2022/09/07 12:24:37;;;;;;;3.73;2.80;;;33.10;60.40;;;;;;4978444;28;20489;-64
2022/09/07 12:27:05;;;;;;;2.10;1.70;;;32.90;61.20;;;;;;4978794;28;20493;-63
2022/09/07 12:29:32;;;;;;;3.17;2.13;;;32.60;62.30;;;;;;4978226;28;20454;-63
2022/09/07 12:32:02;;;;;;;6.27;2.43;;;32.30;64.00;;;;;;4978057;28;20478;-63
2022/09/07 12:34:49;;;;;;;3.53;1.80;;;32.40;61.60;;;;;;4978197;28;20459;-63
2022/09/07 12:37:46;;;;;;;8.60;2.00;;;32.30;61.40;;;;;;4978287;28;20442;-64
2022/09/07 12:40:45;;;;;;;2.57;2.00;;;32.20;60.80;;;;;;4937376;29;20436;-63
2022/09/07 12:43:50;;;;;;;2.00;1.90;;;32.10;63.00;;;;;;4977799;28;20455;-63
2022/09/07 12:46:20;;;;;;;4.63;2.10;;;32.30;60.60;;;;;;4978612;28;20454;-62
2022/09/07 12:48:59;;;;;;;2.00;1.80;;;32.50;61.70;;;;;;4977534;28;20957;-63
2022/09/07 12:51:34;;;;;;;2.20;1.97;;;32.80;60.80;;;;;;4977745;28;20485;-62
2022/09/07 12:54:08;;;;;;;2.60;1.80;;;33.00;61.50;;;;;;4977929;28;20465;-63
2022/09/07 12:56:43;;;;;;;2.70;2.20;;;33.20;58.60;;;;;;4978398;28;20492;-62
2022/09/07 12:59:34;;;;;;;1.93;1.83;;;33.10;59.80;;;;;;4977477;28;20442;-62
2022/09/07 13:02:15;;;;;;;1.70;1.57;;;32.90;59.10;;;;;;4977293;28;20970;-63
2022/09/07 13:04:58;;;;;;;1.57;1.47;;;32.80;59.40;;;;;;4978324;28;20431;-67
2022/09/07 13:07:57;;;;;;;2.33;1.63;;;32.60;59.40;;;;;;4978227;28;20439;-63
2022/09/07 13:10:29;;;;;;;3.30;2.10;;;32.30;59.00;;;;;;4977988;28;20439;-62
2022/09/07 13:13:02;;;;;;;2.37;2.23;;;32.10;60.40;;;;;;4977803;28;20450;-62
2022/09/07 13:15:35;;;;;;;2.30;1.90;;;31.90;60.90;;;;;;4977424;28;20517;-62
2022/09/07 13:18:03;;;;;;;2.87;1.90;;;31.70;61.80;;;;;;4977482;28;20471;-63
2022/09/07 13:20:32;;;;;;;3.60;1.67;;;31.60;63.10;;;;;;4978115;28;20835;-62
2022/09/07 13:23:22;;;;;;;2.20;2.00;;;31.70;62.70;;;;;;4977284;28;20465;-62
2022/09/07 13:25:51;;;;;;;2.30;1.97;;;31.80;63.10;;;;;;4977195;28;20442;-62
2022/09/07 13:28:27;;;;;;;8.73;2.57;;;31.80;63.10;;;;;;4977248;28;20454;-62
2022/09/07 13:31:15;;;;;;;3.10;1.77;;;32.00;60.70;;;;;;4977279;28;20525;-63
2022/09/07 13:33:46;;;;;;;4.03;2.30;;;32.20;62.00;;;;;;4968524;28;20474;-62
2022/09/07 13:36:39;;;;;;;3.03;2.23;;;32.40;59.70;;;;;;4977193;28;20779;-62
2022/09/07 13:39:12;;;;;;;7.63;1.90;;;32.50;60.70;;;;;;4967499;28;20462;-63
2022/09/07 13:41:43;;;;;;;2.23;1.90;;;32.50;59.00;;;;;;4976847;28;20474;-62
2022/09/07 13:44:20;;;;;;;2.97;2.07;;;32.30;59.00;;;;;;4976979;28;20462;-62
2022/09/07 13:47:08;;;;;;;4.87;2.53;;;32.30;60.20;;;;;;4976860;28;20943;-63
2022/09/07 13:49:47;;;;;;;2.47;2.10;;;32.50;59.80;;;;;;4977264;28;20867;-63
2022/09/07 13:52:19;;;;;;;3.67;1.93;;;32.30;59.50;;;;;;4977139;28;20470;-62
2022/09/07 13:55:00;;;;;;;4.70;2.10;;;32.30;60.20;;;;;;4976687;28;20462;-62
2022/09/07 13:57:31;;;;;;;3.63;2.30;;;32.10;59.20;;;;;;4976696;28;20447;-63
2022/09/07 13:59:58;;;;;;;5.10;1.83;;;32.20;60.00;;;;;;4976211;28;20439;-62
2022/09/07 14:02:29;;;;;;;3.50;1.70;;;32.20;60.20;;;;;;4976359;28;20486;-62
2022/09/07 14:04:59;;;;;;;4.10;2.07;;;32.20;60.20;;;;;;4976529;28;20435;-62
2022/09/07 14:07:28;;;;;;;4.13;1.83;;;32.20;60.80;;;;;;4976591;28;20558;-62
2022/09/07 14:10:13;;;;;;;4.77;2.37;;;32.20;61.00;;;;;;4975469;28;20942;-62
2022/09/07 14:12:45;;;;;;;2.17;2.00;;;32.40;61.60;;;;;;4977322;28;20474;-62
2022/09/07 14:15:22;;;;;;;2.47;1.90;;;32.50;59.20;;;;;;4976122;28;20478;-62
2022/09/07 14:18:02;;;;;;;3.80;2.50;;;32.70;59.30;;;;;;4976300;28;20474;-62
2022/09/07 14:20:31;;;;;;;4.33;2.07;;;32.60;58.10;;;;;;4976112;28;20791;-62
2022/09/07 14:22:59;;;;;;;2.60;1.83;;;32.60;58.80;;;;;;4976178;28;20465;-62
2022/09/07 14:25:26;;;;;;;2.77;1.70;;;32.60;58.50;;;;;;4976068;28;20521;-62
2022/09/07 14:27:52;;;;;;;8.80;1.90;;;32.40;59.50;;;;;;4975998;28;20512;-62
2022/09/07 14:30:26;;;;;;;4.03;1.93;;;32.40;58.80;;;;;;4976076;28;20462;-62
2022/09/07 14:32:55;;;;;;;2.27;2.07;;;32.40;58.80;;;;;;4975938;28;20438;-62
2022/09/07 14:35:24;;;;;;;6.43;2.00;;;32.30;59.50;;;;;;4975860;28;20478;-62
2022/09/07 14:37:51;;;;;;;1.80;1.70;;;32.30;61.00;;;;;;4975894;28;20458;-62
2022/09/07 14:40:21;;;;;;;2.60;1.90;;;32.30;58.60;;;;;;4975750;28;20522;-62
2022/09/07 14:42:49;;;;;;;6.03;2.20;;;32.30;59.50;;;;;;4975780;28;20443;-62
2022/09/07 14:45:30;;;;;;;4.93;2.03;;;32.10;58.40;;;;;;4975768;28;20455;-62
2022/09/07 14:47:57;;;;;;;3.70;1.97;;;31.90;58.80;;;;;;4975954;28;20530;-62
2022/09/07 14:50:26;;;;;;;2.13;1.93;;;31.70;59.60;;;;;;4975599;28;20484;-62
2022/09/07 14:52:55;;;;;;;3.30;2.40;;;31.40;59.20;;;;;;4975828;28;20450;-62
2022/09/07 14:55:32;;;;;;;4.10;2.30;;;31.10;59.40;;;;;;4975221;28;20994;-62
2022/09/07 14:58:22;;;;;;;2.80;2.03;;;30.80;59.70;;;;;;4975662;28;20439;-62
2022/09/07 15:00:51;;;;;;;4.63;2.20;;;30.60;61.40;;;;;;4975268;28;20486;-62
2022/09/07 15:03:25;;;;;;;6.17;2.10;;;30.50;61.40;;;;;;4975119;28;21004;-62
2022/09/07 15:05:52;;;;;;;1.60;1.50;;;30.30;61.30;;;;;;4975267;28;20450;-62
2022/09/07 15:08:34;;;;;;;2.53;2.13;;;30.10;62.20;;;;;;4975468;28;20513;-62
2022/09/07 15:11:04;;;;;;;4.37;2.27;;;29.90;62.70;;;;;;4975283;28;20475;-62
2022/09/07 15:13:33;;;;;;;2.37;2.27;;;29.90;63.30;;;;;;4975371;28;20458;-62
2022/09/07 15:16:01;;;;;;;2.07;1.87;;;29.90;64.40;;;;;;4975229;28;20475;-62
2022/09/07 15:18:49;;;;;;;1.80;1.70;;;29.70;63.40;;;;;;4975208;28;20498;-62
2022/09/07 15:21:16;;;;;;;2.43;1.93;;;29.70;64.80;;;;;;4975185;28;20471;-62
2022/09/07 15:23:42;;;;;;;4.90;2.50;;;29.50;64.40;;;;;;4975013;28;20459;-62
2022/09/07 15:26:11;;;;;;;3.13;1.80;;;29.50;64.60;;;;;;4975097;28;20505;-62
2022/09/07 15:28:38;;;;;;;2.40;2.13;;;29.40;64.70;;;;;;4974794;28;20457;-62
2022/09/07 15:31:04;;;;;;;4.23;2.10;;;29.30;65.00;;;;;;4974986;28;20470;-62
2022/09/07 15:33:31;;;;;;;2.63;1.60;;;29.40;66.30;;;;;;4975261;28;20518;-62
2022/09/07 15:35:58;;;;;;;2.50;2.00;;;29.50;66.40;;;;;;4975145;28;20493;-62
2022/09/07 15:38:24;;;;;;;3.33;2.50;;;29.50;66.10;;;;;;4974797;28;20459;-62
2022/09/07 15:40:53;;;;;;;2.40;2.00;;;29.40;65.40;;;;;;4974634;28;21053;-62
2022/09/07 15:43:21;;;;;;;2.30;1.93;;;29.30;64.60;;;;;;4974857;28;20958;-61
2022/09/07 15:45:50;;;;;;;2.13;1.90;;;29.10;64.50;;;;;;4974941;28;20461;-62
2022/09/07 15:48:19;;;;;;;1.80;1.70;;;29.00;65.10;;;;;;4974919;28;20459;-62
2022/09/07 15:50:46;;;;;;;2.93;1.90;;;28.90;65.90;;;;;;4975086;28;20478;-62
2022/09/07 15:53:13;;;;;;;5.50;1.90;;;28.80;65.30;;;;;;4974722;28;20454;-62
2022/09/07 15:55:40;;;;;;;3.30;1.93;;;28.70;65.30;;;;;;4975456;28;20525;-62
2022/09/07 15:58:07;;;;;;;4.43;1.73;;;28.70;66.40;;;;;;4974509;28;20462;-62
2022/09/07 16:00:35;;;;;;;2.90;1.70;;;28.60;65.80;;;;;;4974604;28;20478;-62
2022/09/07 16:03:02;;;;;;;3.50;1.87;;;28.60;67.10;;;;;;4974851;28;20517;-62
2022/09/07 16:05:29;;;;;;;1.70;1.60;;;28.60;67.20;;;;;;4974764;28;20458;-62
2022/09/07 16:07:55;;;;;;;2.40;2.20;;;28.60;67.70;;;;;;4974770;28;21001;-62
2022/09/07 16:10:23;;;;;;;2.93;2.00;;;28.60;67.30;;;;;;4975278;28;20462;-62
2022/09/07 16:12:49;;;;;;;2.07;1.80;;;28.60;66.30;;;;;;4975637;28;20462;-62
2022/09/07 16:15:16;;;;;;;1.70;1.60;;;28.60;67.10;;;;;;4974927;28;20549;-62
2022/09/07 16:17:45;;;;;;;2.83;2.07;;;28.60;66.60;;;;;;4974519;28;20454;-63
2022/09/07 16:20:11;;;;;;;3.73;1.90;;;28.50;65.40;;;;;;4974527;28;20465;-62
2022/09/07 16:22:38;;;;;;;2.90;2.13;;;28.50;66.10;;;;;;4974543;28;20882;-62
2022/09/07 16:25:05;;;;;;;3.43;1.90;;;28.40;65.90;;;;;;4974662;28;20450;-62
2022/09/07 16:27:32;;;;;;;2.00;1.90;;;28.30;65.80;;;;;;4974615;28;20538;-62
2022/09/07 16:29:59;;;;;;;5.20;2.10;;;28.20;65.70;;;;;;4974483;28;20517;-62
2022/09/07 16:32:26;;;;;;;3.70;1.80;;;28.10;66.70;;;;;;4974499;28;20474;-62
2022/09/07 16:34:54;;;;;;;2.77;2.47;;;28.00;67.50;;;;;;4977736;28;21049;-63
2022/09/07 16:37:20;;;;;;;1.67;1.57;;;28.00;67.40;;;;;;4978084;28;20458;-62
2022/09/07 16:39:47;;;;;;;2.97;1.73;;;27.90;67.80;;;;;;4978157;28;20509;-62
2022/09/07 16:42:14;;;;;;;3.37;1.50;;;27.90;68.10;;;;;;4978005;28;20474;-62
2022/09/07 16:44:40;;;;;;;5.80;2.23;;;27.80;68.70;;;;;;4977987;28;20457;-62
2022/09/07 16:47:07;;;;;;;4.93;1.93;;;27.80;69.40;;;;;;4978063;28;20509;-62
2022/09/07 16:49:34;;;;;;;5.50;2.47;;;27.70;69.80;;;;;;4978031;28;20480;-61
2022/09/07 16:52:04;;;;;;;4.67;2.43;;;27.60;70.40;;;;;;4977843;28;20553;-62
2022/09/07 16:54:31;;;;;;;2.57;2.33;;;27.50;71.60;;;;;;4977373;28;20459;-64
2022/09/07 16:56:57;;;;;;;5.20;2.40;;;27.50;72.10;;;;;;4977831;28;20462;-62
2022/09/07 16:59:25;;;;;;;3.17;2.00;;;27.40;71.70;;;;;;4977604;28;20458;-62
2022/09/07 17:01:52;;;;;;;2.73;1.87;;;27.40;72.20;;;;;;4977446;28;20513;-62
2022/09/07 17:04:19;;;;;;;3.13;1.80;;;27.30;72.20;;;;;;4977685;28;20454;-61
2022/09/07 17:06:46;;;;;;;5.80;1.90;;;27.30;73.00;;;;;;4977706;28;20529;-63